sensor_id;sensor_type;location;lat;lon;timestamp;P1;durP1;ratioP1;P2;durP2;ratioP2
32611;SDS011;19030;49.478;8.986;2023-07-22T00:00:28;5.95;;;2.70;;
32611;SDS011;19030;49.478;8.986;2023-07-22T00:02:29;6.05;;;2.95;;
32611;SDS011;19030;49.478;8.986;2023-07-22T00:04:30;5.50;;;3.05;;
32611;SDS011;19030;49.478;8.986;2023-07-22T00:06:31;5.55;;;3.15;;
32611;SDS011;19030;49.478;8.986;2023-07-22T00:08:32;6.47;;;3.08;;
32611;SDS011;19030;49.478;8.986;2023-07-22T00:10:34;7.32;;;3.25;;
32611;SDS011;19030;49.478;8.986;2023-07-22T00:12:34;8.25;;;3.50;;
32611;SDS011;19030;49.478;8.986;2023-07-22T00:14:38;5.70;;;3.08;;
32611;SDS011;19030;49.478;8.986;2023-07-22T00:16:40;7.57;;;2.95;;
32611;SDS011;19030;49.478;8.986;2023-07-22T00:18:40;8.75;;;3.30;;
32611;SDS011;19030;49.478;8.986;2023-07-22T00:20:41;9.90;;;3.17;;
32611;SDS011;19030;49.478;8.986;2023-07-22T00:22:42;7.28;;;3.10;;
32611;SDS011;19030;49.478;8.986;2023-07-22T00:24:43;6.25;;;2.92;;
32611;SDS011;19030;49.478;8.986;2023-07-22T00:26:43;7.35;;;3.13;;
32611;SDS011;19030;49.478;8.986;2023-07-22T00:28:44;7.53;;;3.10;;
32611;SDS011;19030;49.478;8.986;2023-07-22T00:30:44;5.13;;;3.03;;
32611;SDS011;19030;49.478;8.986;2023-07-22T00:32:45;7.60;;;3.25;;
32611;SDS011;19030;49.478;8.986;2023-07-22T00:34:46;7.28;;;3.53;;
32611;SDS011;19030;49.478;8.986;2023-07-22T00:36:46;7.03;;;3.42;;
32611;SDS011;19030;49.478;8.986;2023-07-22T00:38:48;5.60;;;2.92;;
32611;SDS011;19030;49.478;8.986;2023-07-22T00:40:48;5.22;;;3.10;;
32611;SDS011;19030;49.478;8.986;2023-07-22T00:42:49;6.22;;;4.05;;
32611;SDS011;19030;49.478;8.986;2023-07-22T00:44:49;6.18;;;3.58;;
32611;SDS011;19030;49.478;8.986;2023-07-22T00:46:50;6.25;;;3.20;;
32611;SDS011;19030;49.478;8.986;2023-07-22T00:48:55;5.80;;;3.08;;
32611;SDS011;19030;49.478;8.986;2023-07-22T00:50:56;6.60;;;2.90;;
32611;SDS011;19030;49.478;8.986;2023-07-22T00:52:57;7.80;;;3.53;;
32611;SDS011;19030;49.478;8.986;2023-07-22T00:54:57;7.88;;;3.30;;
32611;SDS011;19030;49.478;8.986;2023-07-22T00:57:01;6.22;;;3.30;;
32611;SDS011;19030;49.478;8.986;2023-07-22T00:59:02;6.40;;;3.28;;
32611;SDS011;19030;49.478;8.986;2023-07-22T01:01:02;8.45;;;3.67;;
32611;SDS011;19030;49.478;8.986;2023-07-22T01:03:03;7.43;;;3.53;;
32611;SDS011;19030;49.478;8.986;2023-07-22T01:05:05;6.20;;;3.22;;
32611;SDS011;19030;49.478;8.986;2023-07-22T01:07:06;5.45;;;3.20;;
32611;SDS011;19030;49.478;8.986;2023-07-22T01:09:07;9.05;;;3.25;;
32611;SDS011;19030;49.478;8.986;2023-07-22T01:11:09;6.20;;;3.15;;
32611;SDS011;19030;49.478;8.986;2023-07-22T01:13:09;7.30;;;3.17;;
32611;SDS011;19030;49.478;8.986;2023-07-22T01:15:10;5.60;;;3.35;;
32611;SDS011;19030;49.478;8.986;2023-07-22T01:17:11;7.35;;;3.70;;
32611;SDS011;19030;49.478;8.986;2023-07-22T01:19:13;5.88;;;3.45;;
32611;SDS011;19030;49.478;8.986;2023-07-22T01:21:19;9.60;;;3.40;;
32611;SDS011;19030;49.478;8.986;2023-07-22T01:23:20;6.78;;;3.70;;
32611;SDS011;19030;49.478;8.986;2023-07-22T01:25:21;5.10;;;3.10;;
32611;SDS011;19030;49.478;8.986;2023-07-22T01:27:23;6.97;;;3.58;;
32611;SDS011;19030;49.478;8.986;2023-07-22T01:29:24;7.53;;;3.88;;
32611;SDS011;19030;49.478;8.986;2023-07-22T01:31:25;5.10;;;3.03;;
32611;SDS011;19030;49.478;8.986;2023-07-22T01:33:26;6.95;;;3.00;;
32611;SDS011;19030;49.478;8.986;2023-07-22T01:35:28;5.90;;;3.30;;
32611;SDS011;19030;49.478;8.986;2023-07-22T01:37:28;8.05;;;3.58;;
32611;SDS011;19030;49.478;8.986;2023-07-22T01:39:29;7.30;;;3.70;;
32611;SDS011;19030;49.478;8.986;2023-07-22T01:41:29;5.70;;;3.28;;
32611;SDS011;19030;49.478;8.986;2023-07-22T01:43:30;5.30;;;3.00;;
32611;SDS011;19030;49.478;8.986;2023-07-22T01:45:30;5.82;;;3.13;;
32611;SDS011;19030;49.478;8.986;2023-07-22T01:47:32;8.00;;;3.22;;
32611;SDS011;19030;49.478;8.986;2023-07-22T01:49:34;6.22;;;3.42;;
32611;SDS011;19030;49.478;8.986;2023-07-22T01:51:34;7.45;;;3.42;;
32611;SDS011;19030;49.478;8.986;2023-07-22T01:53:37;9.00;;;3.60;;
32611;SDS011;19030;49.478;8.986;2023-07-22T01:55:38;8.63;;;3.60;;
32611;SDS011;19030;49.478;8.986;2023-07-22T01:57:39;6.50;;;3.30;;
32611;SDS011;19030;49.478;8.986;2023-07-22T01:59:40;5.88;;;3.42;;
32611;SDS011;19030;49.478;8.986;2023-07-22T02:01:41;7.82;;;3.65;;
32611;SDS011;19030;49.478;8.986;2023-07-22T02:03:42;5.43;;;3.05;;
32611;SDS011;19030;49.478;8.986;2023-07-22T02:05:42;5.78;;;3.30;;
32611;SDS011;19030;49.478;8.986;2023-07-22T02:07:43;7.30;;;3.63;;
32611;SDS011;19030;49.478;8.986;2023-07-22T02:09:44;5.85;;;3.08;;
32611;SDS011;19030;49.478;8.986;2023-07-22T02:11:45;10.38;;;4.78;;
32611;SDS011;19030;49.478;8.986;2023-07-22T02:13:46;6.75;;;3.65;;
32611;SDS011;19030;49.478;8.986;2023-07-22T02:15:46;8.23;;;3.50;;
32611;SDS011;19030;49.478;8.986;2023-07-22T02:17:48;7.28;;;3.40;;
32611;SDS011;19030;49.478;8.986;2023-07-22T02:19:49;6.22;;;3.47;;
32611;SDS011;19030;49.478;8.986;2023-07-22T02:21:50;5.68;;;3.30;;
32611;SDS011;19030;49.478;8.986;2023-07-22T02:23:51;5.93;;;3.28;;
32611;SDS011;19030;49.478;8.986;2023-07-22T02:25:52;6.82;;;3.75;;
32611;SDS011;19030;49.478;8.986;2023-07-22T02:27:53;7.85;;;3.53;;
32611;SDS011;19030;49.478;8.986;2023-07-22T02:29:54;8.20;;;3.78;;
32611;SDS011;19030;49.478;8.986;2023-07-22T02:31:54;5.63;;;3.55;;
32611;SDS011;19030;49.478;8.986;2023-07-22T02:33:55;9.07;;;3.92;;
32611;SDS011;19030;49.478;8.986;2023-07-22T02:35:55;6.38;;;3.38;;
32611;SDS011;19030;49.478;8.986;2023-07-22T02:37:56;6.65;;;3.30;;
32611;SDS011;19030;49.478;8.986;2023-07-22T02:39:56;7.10;;;3.58;;
32611;SDS011;19030;49.478;8.986;2023-07-22T02:41:57;8.20;;;3.53;;
32611;SDS011;19030;49.478;8.986;2023-07-22T02:43:58;6.05;;;3.28;;
32611;SDS011;19030;49.478;8.986;2023-07-22T02:46:01;7.70;;;3.92;;
32611;SDS011;19030;49.478;8.986;2023-07-22T02:48:03;9.52;;;3.80;;
32611;SDS011;19030;49.478;8.986;2023-07-22T02:50:05;5.78;;;3.50;;
32611;SDS011;19030;49.478;8.986;2023-07-22T02:52:06;7.40;;;3.80;;
32611;SDS011;19030;49.478;8.986;2023-07-22T02:54:07;8.32;;;3.80;;
32611;SDS011;19030;49.478;8.986;2023-07-22T02:56:07;7.57;;;3.75;;
32611;SDS011;19030;49.478;8.986;2023-07-22T02:58:08;6.97;;;3.92;;
32611;SDS011;19030;49.478;8.986;2023-07-22T03:00:08;6.22;;;3.65;;
32611;SDS011;19030;49.478;8.986;2023-07-22T03:02:11;9.55;;;4.03;;
32611;SDS011;19030;49.478;8.986;2023-07-22T03:04:14;7.18;;;3.95;;
32611;SDS011;19030;49.478;8.986;2023-07-22T03:06:14;7.25;;;4.18;;
32611;SDS011;19030;49.478;8.986;2023-07-22T03:08:16;10.75;;;3.90;;
32611;SDS011;19030;49.478;8.986;2023-07-22T03:10:17;8.20;;;4.13;;
32611;SDS011;19030;49.478;8.986;2023-07-22T03:12:18;8.52;;;4.53;;
32611;SDS011;19030;49.478;8.986;2023-07-22T03:14:18;7.10;;;4.13;;
32611;SDS011;19030;49.478;8.986;2023-07-22T03:16:20;7.45;;;3.80;;
32611;SDS011;19030;49.478;8.986;2023-07-22T03:18:21;7.53;;;3.78;;
32611;SDS011;19030;49.478;8.986;2023-07-22T03:20:22;7.70;;;4.07;;
32611;SDS011;19030;49.478;8.986;2023-07-22T03:22:24;7.80;;;4.18;;
32611;SDS011;19030;49.478;8.986;2023-07-22T03:24:25;8.00;;;4.07;;
32611;SDS011;19030;49.478;8.986;2023-07-22T03:26:25;7.20;;;3.90;;
32611;SDS011;19030;49.478;8.986;2023-07-22T03:28:26;6.93;;;4.20;;
32611;SDS011;19030;49.478;8.986;2023-07-22T03:30:27;6.72;;;3.92;;
32611;SDS011;19030;49.478;8.986;2023-07-22T03:32:27;7.63;;;4.13;;
32611;SDS011;19030;49.478;8.986;2023-07-22T03:34:28;9.02;;;4.20;;
32611;SDS011;19030;49.478;8.986;2023-07-22T03:36:29;8.00;;;4.70;;
32611;SDS011;19030;49.478;8.986;2023-07-22T03:38:33;9.77;;;4.50;;
32611;SDS011;19030;49.478;8.986;2023-07-22T03:40:34;7.75;;;5.05;;
32611;SDS011;19030;49.478;8.986;2023-07-22T03:42:34;7.88;;;3.95;;
32611;SDS011;19030;49.478;8.986;2023-07-22T03:44:35;7.78;;;4.15;;
32611;SDS011;19030;49.478;8.986;2023-07-22T03:46:36;8.48;;;5.00;;
32611;SDS011;19030;49.478;8.986;2023-07-22T03:48:36;8.57;;;4.43;;
32611;SDS011;19030;49.478;8.986;2023-07-22T03:50:37;8.20;;;4.55;;
32611;SDS011;19030;49.478;8.986;2023-07-22T03:52:37;7.25;;;4.25;;
32611;SDS011;19030;49.478;8.986;2023-07-22T03:54:38;7.45;;;4.80;;
32611;SDS011;19030;49.478;8.986;2023-07-22T03:56:40;7.68;;;4.55;;
32611;SDS011;19030;49.478;8.986;2023-07-22T03:58:41;7.35;;;4.40;;
32611;SDS011;19030;49.478;8.986;2023-07-22T04:00:42;8.82;;;4.70;;
32611;SDS011;19030;49.478;8.986;2023-07-22T04:02:42;8.60;;;4.30;;
32611;SDS011;19030;49.478;8.986;2023-07-22T04:04:43;6.97;;;4.43;;
32611;SDS011;19030;49.478;8.986;2023-07-22T04:06:44;9.82;;;4.53;;
32611;SDS011;19030;49.478;8.986;2023-07-22T04:08:44;8.82;;;4.55;;
32611;SDS011;19030;49.478;8.986;2023-07-22T04:10:54;7.88;;;4.53;;
32611;SDS011;19030;49.478;8.986;2023-07-22T04:12:56;7.35;;;4.25;;
32611;SDS011;19030;49.478;8.986;2023-07-22T04:14:57;7.97;;;4.65;;
32611;SDS011;19030;49.478;8.986;2023-07-22T04:16:57;10.45;;;5.13;;
32611;SDS011;19030;49.478;8.986;2023-07-22T04:18:58;8.15;;;4.65;;
32611;SDS011;19030;49.478;8.986;2023-07-22T04:20:59;9.45;;;4.80;;
32611;SDS011;19030;49.478;8.986;2023-07-22T04:23:00;7.72;;;4.30;;
32611;SDS011;19030;49.478;8.986;2023-07-22T04:25:03;8.25;;;4.68;;
32611;SDS011;19030;49.478;8.986;2023-07-22T04:27:05;8.00;;;4.50;;
32611;SDS011;19030;49.478;8.986;2023-07-22T04:29:06;8.77;;;4.93;;
32611;SDS011;19030;49.478;8.986;2023-07-22T04:31:06;10.43;;;5.22;;
32611;SDS011;19030;49.478;8.986;2023-07-22T04:33:09;7.97;;;4.45;;
32611;SDS011;19030;49.478;8.986;2023-07-22T04:35:10;9.20;;;4.90;;
32611;SDS011;19030;49.478;8.986;2023-07-22T04:37:11;7.90;;;4.53;;
32611;SDS011;19030;49.478;8.986;2023-07-22T04:39:12;8.00;;;4.72;;
32611;SDS011;19030;49.478;8.986;2023-07-22T04:41:13;7.78;;;4.35;;
32611;SDS011;19030;49.478;8.986;2023-07-22T04:43:13;7.13;;;4.50;;
32611;SDS011;19030;49.478;8.986;2023-07-22T04:45:14;7.65;;;4.40;;
32611;SDS011;19030;49.478;8.986;2023-07-22T04:47:15;8.02;;;4.78;;
32611;SDS011;19030;49.478;8.986;2023-07-22T04:49:16;8.48;;;4.90;;
32611;SDS011;19030;49.478;8.986;2023-07-22T04:51:17;7.65;;;4.78;;
32611;SDS011;19030;49.478;8.986;2023-07-22T04:53:18;8.05;;;5.13;;
32611;SDS011;19030;49.478;8.986;2023-07-22T04:55:18;7.88;;;4.85;;
32611;SDS011;19030;49.478;8.986;2023-07-22T04:57:20;8.68;;;4.80;;
32611;SDS011;19030;49.478;8.986;2023-07-22T04:59:21;8.90;;;5.03;;
32611;SDS011;19030;49.478;8.986;2023-07-22T05:01:22;9.38;;;5.63;;
32611;SDS011;19030;49.478;8.986;2023-07-22T05:03:22;9.70;;;5.72;;
32611;SDS011;19030;49.478;8.986;2023-07-22T05:05:25;9.45;;;5.32;;
32611;SDS011;19030;49.478;8.986;2023-07-22T05:07:26;7.50;;;4.82;;
32611;SDS011;19030;49.478;8.986;2023-07-22T05:09:26;8.80;;;4.85;;
32611;SDS011;19030;49.478;8.986;2023-07-22T05:11:27;8.63;;;4.93;;
32611;SDS011;19030;49.478;8.986;2023-07-22T05:13:27;10.25;;;5.55;;
32611;SDS011;19030;49.478;8.986;2023-07-22T05:15:28;9.13;;;5.28;;
32611;SDS011;19030;49.478;8.986;2023-07-22T05:17:28;8.82;;;5.40;;
32611;SDS011;19030;49.478;8.986;2023-07-22T05:19:31;8.63;;;5.25;;
32611;SDS011;19030;49.478;8.986;2023-07-22T05:21:31;9.32;;;5.32;;
32611;SDS011;19030;49.478;8.986;2023-07-22T05:23:32;8.77;;;5.65;;
32611;SDS011;19030;49.478;8.986;2023-07-22T05:25:32;8.52;;;5.32;;
32611;SDS011;19030;49.478;8.986;2023-07-22T05:27:33;8.25;;;4.97;;
32611;SDS011;19030;49.478;8.986;2023-07-22T05:29:34;9.55;;;5.07;;
32611;SDS011;19030;49.478;8.986;2023-07-22T05:31:34;8.18;;;4.70;;
32611;SDS011;19030;49.478;8.986;2023-07-22T05:33:35;8.88;;;5.00;;
32611;SDS011;19030;49.478;8.986;2023-07-22T05:35:36;9.90;;;4.95;;
32611;SDS011;19030;49.478;8.986;2023-07-22T05:37:36;8.20;;;4.82;;
32611;SDS011;19030;49.478;8.986;2023-07-22T05:39:37;7.60;;;4.57;;
32611;SDS011;19030;49.478;8.986;2023-07-22T05:41:37;8.65;;;4.80;;
32611;SDS011;19030;49.478;8.986;2023-07-22T05:43:38;7.75;;;4.93;;
32611;SDS011;19030;49.478;8.986;2023-07-22T05:45:38;8.18;;;5.13;;
32611;SDS011;19030;49.478;8.986;2023-07-22T05:47:39;10.18;;;5.15;;
32611;SDS011;19030;49.478;8.986;2023-07-22T05:49:39;9.63;;;5.45;;
32611;SDS011;19030;49.478;8.986;2023-07-22T05:51:40;9.15;;;5.50;;
32611;SDS011;19030;49.478;8.986;2023-07-22T05:53:41;8.82;;;5.35;;
32611;SDS011;19030;49.478;8.986;2023-07-22T05:55:41;8.68;;;4.68;;
32611;SDS011;19030;49.478;8.986;2023-07-22T05:57:42;8.18;;;4.70;;
32611;SDS011;19030;49.478;8.986;2023-07-22T05:59:42;11.23;;;5.40;;
32611;SDS011;19030;49.478;8.986;2023-07-22T06:01:43;7.40;;;4.63;;
32611;SDS011;19030;49.478;8.986;2023-07-22T06:03:43;8.57;;;5.20;;
32611;SDS011;19030;49.478;8.986;2023-07-22T06:05:44;8.85;;;5.30;;
32611;SDS011;19030;49.478;8.986;2023-07-22T06:07:45;9.10;;;5.22;;
32611;SDS011;19030;49.478;8.986;2023-07-22T06:09:46;9.70;;;5.82;;
32611;SDS011;19030;49.478;8.986;2023-07-22T06:11:47;8.50;;;4.70;;
32611;SDS011;19030;49.478;8.986;2023-07-22T06:13:47;9.32;;;4.88;;
32611;SDS011;19030;49.478;8.986;2023-07-22T06:15:48;9.77;;;5.18;;
32611;SDS011;19030;49.478;8.986;2023-07-22T06:17:48;8.75;;;4.53;;
32611;SDS011;19030;49.478;8.986;2023-07-22T06:19:49;9.48;;;5.00;;
32611;SDS011;19030;49.478;8.986;2023-07-22T06:21:49;8.55;;;5.35;;
32611;SDS011;19030;49.478;8.986;2023-07-22T06:23:50;8.38;;;5.30;;
32611;SDS011;19030;49.478;8.986;2023-07-22T06:25:51;7.03;;;4.57;;
32611;SDS011;19030;49.478;8.986;2023-07-22T06:27:52;8.68;;;5.50;;
32611;SDS011;19030;49.478;8.986;2023-07-22T06:29:54;10.30;;;5.38;;
32611;SDS011;19030;49.478;8.986;2023-07-22T06:31:55;8.38;;;4.45;;
32611;SDS011;19030;49.478;8.986;2023-07-22T06:33:56;8.77;;;5.43;;
32611;SDS011;19030;49.478;8.986;2023-07-22T06:35:59;9.07;;;5.20;;
32611;SDS011;19030;49.478;8.986;2023-07-22T06:38:00;7.70;;;4.93;;
32611;SDS011;19030;49.478;8.986;2023-07-22T06:40:00;8.95;;;4.80;;
32611;SDS011;19030;49.478;8.986;2023-07-22T06:42:02;8.00;;;5.20;;
32611;SDS011;19030;49.478;8.986;2023-07-22T06:44:03;7.78;;;4.60;;
32611;SDS011;19030;49.478;8.986;2023-07-22T06:46:03;9.05;;;5.53;;
32611;SDS011;19030;49.478;8.986;2023-07-22T06:48:04;9.05;;;4.93;;
32611;SDS011;19030;49.478;8.986;2023-07-22T06:50:05;9.38;;;5.78;;
32611;SDS011;19030;49.478;8.986;2023-07-22T06:52:06;8.27;;;5.00;;
32611;SDS011;19030;49.478;8.986;2023-07-22T06:54:07;7.55;;;4.75;;
32611;SDS011;19030;49.478;8.986;2023-07-22T06:56:07;7.05;;;4.57;;
32611;SDS011;19030;49.478;8.986;2023-07-22T06:58:08;7.65;;;4.43;;
32611;SDS011;19030;49.478;8.986;2023-07-22T07:00:08;6.97;;;4.60;;
32611;SDS011;19030;49.478;8.986;2023-07-22T07:02:12;7.18;;;4.45;;
32611;SDS011;19030;49.478;8.986;2023-07-22T07:04:13;7.60;;;4.68;;
32611;SDS011;19030;49.478;8.986;2023-07-22T07:06:13;8.30;;;4.57;;
32611;SDS011;19030;49.478;8.986;2023-07-22T07:08:14;8.90;;;5.13;;
32611;SDS011;19030;49.478;8.986;2023-07-22T07:10:14;7.97;;;4.78;;
32611;SDS011;19030;49.478;8.986;2023-07-22T07:12:15;7.85;;;5.07;;
32611;SDS011;19030;49.478;8.986;2023-07-22T07:14:16;7.38;;;4.78;;
32611;SDS011;19030;49.478;8.986;2023-07-22T07:16:23;8.80;;;5.25;;
32611;SDS011;19030;49.478;8.986;2023-07-22T07:18:24;7.47;;;4.88;;
32611;SDS011;19030;49.478;8.986;2023-07-22T07:20:24;8.93;;;5.07;;
32611;SDS011;19030;49.478;8.986;2023-07-22T07:22:25;10.10;;;4.65;;
32611;SDS011;19030;49.478;8.986;2023-07-22T07:24:25;8.15;;;4.60;;
32611;SDS011;19030;49.478;8.986;2023-07-22T07:26:27;8.00;;;4.25;;
32611;SDS011;19030;49.478;8.986;2023-07-22T07:28:28;9.18;;;4.72;;
32611;SDS011;19030;49.478;8.986;2023-07-22T07:30:28;8.90;;;5.00;;
32611;SDS011;19030;49.478;8.986;2023-07-22T07:32:29;8.45;;;4.97;;
32611;SDS011;19030;49.478;8.986;2023-07-22T07:34:29;7.88;;;4.78;;
32611;SDS011;19030;49.478;8.986;2023-07-22T07:36:31;8.15;;;4.80;;
32611;SDS011;19030;49.478;8.986;2023-07-22T07:38:32;7.90;;;4.45;;
32611;SDS011;19030;49.478;8.986;2023-07-22T07:40:33;9.25;;;4.65;;
32611;SDS011;19030;49.478;8.986;2023-07-22T07:42:33;7.95;;;4.63;;
32611;SDS011;19030;49.478;8.986;2023-07-22T07:44:34;8.32;;;4.68;;
32611;SDS011;19030;49.478;8.986;2023-07-22T07:46:34;7.65;;;4.70;;
32611;SDS011;19030;49.478;8.986;2023-07-22T07:48:35;7.88;;;4.38;;
32611;SDS011;19030;49.478;8.986;2023-07-22T07:50:35;10.70;;;4.97;;
32611;SDS011;19030;49.478;8.986;2023-07-22T07:52:36;8.52;;;4.75;;
32611;SDS011;19030;49.478;8.986;2023-07-22T07:54:38;8.30;;;4.70;;
32611;SDS011;19030;49.478;8.986;2023-07-22T07:56:39;7.22;;;4.30;;
32611;SDS011;19030;49.478;8.986;2023-07-22T07:58:39;8.93;;;4.50;;
32611;SDS011;19030;49.478;8.986;2023-07-22T08:00:40;7.38;;;4.35;;
32611;SDS011;19030;49.478;8.986;2023-07-22T08:02:41;9.25;;;4.38;;
32611;SDS011;19030;49.478;8.986;2023-07-22T08:04:41;8.20;;;4.70;;
32611;SDS011;19030;49.478;8.986;2023-07-22T08:06:42;8.57;;;4.30;;
32611;SDS011;19030;49.478;8.986;2023-07-22T08:08:43;7.68;;;4.40;;
32611;SDS011;19030;49.478;8.986;2023-07-22T08:10:43;7.13;;;4.30;;
32611;SDS011;19030;49.478;8.986;2023-07-22T08:12:44;10.82;;;4.50;;
32611;SDS011;19030;49.478;8.986;2023-07-22T08:14:45;7.30;;;3.97;;
32611;SDS011;19030;49.478;8.986;2023-07-22T08:16:45;6.53;;;4.10;;
32611;SDS011;19030;49.478;8.986;2023-07-22T08:18:46;7.68;;;4.30;;
32611;SDS011;19030;49.478;8.986;2023-07-22T08:20:47;8.40;;;4.50;;
32611;SDS011;19030;49.478;8.986;2023-07-22T08:22:47;9.40;;;4.78;;
32611;SDS011;19030;49.478;8.986;2023-07-22T08:24:48;8.07;;;3.55;;
32611;SDS011;19030;49.478;8.986;2023-07-22T08:26:48;7.93;;;4.18;;
32611;SDS011;19030;49.478;8.986;2023-07-22T08:28:49;7.60;;;3.90;;
32611;SDS011;19030;49.478;8.986;2023-07-22T08:30:50;8.68;;;4.32;;
32611;SDS011;19030;49.478;8.986;2023-07-22T08:32:53;6.90;;;4.10;;
32611;SDS011;19030;49.478;8.986;2023-07-22T08:34:54;7.13;;;4.00;;
32611;SDS011;19030;49.478;8.986;2023-07-22T08:36:54;9.00;;;3.80;;
32611;SDS011;19030;49.478;8.986;2023-07-22T08:38:55;8.70;;;4.43;;
32611;SDS011;19030;49.478;8.986;2023-07-22T08:40:56;7.78;;;4.63;;
32611;SDS011;19030;49.478;8.986;2023-07-22T08:42:56;7.32;;;4.20;;
32611;SDS011;19030;49.478;8.986;2023-07-22T08:44:57;9.20;;;4.72;;
32611;SDS011;19030;49.478;8.986;2023-07-22T08:47:01;6.97;;;4.47;;
32611;SDS011;19030;49.478;8.986;2023-07-22T08:49:05;6.75;;;4.88;;
32611;SDS011;19030;49.478;8.986;2023-07-22T08:51:15;8.27;;;4.43;;
32611;SDS011;19030;49.478;8.986;2023-07-22T08:53:17;6.85;;;4.30;;
32611;SDS011;19030;49.478;8.986;2023-07-22T08:55:21;9.32;;;4.78;;
32611;SDS011;19030;49.478;8.986;2023-07-22T08:57:23;7.72;;;5.05;;
32611;SDS011;19030;49.478;8.986;2023-07-22T08:59:24;7.75;;;4.15;;
32611;SDS011;19030;49.478;8.986;2023-07-22T09:01:25;7.43;;;4.07;;
32611;SDS011;19030;49.478;8.986;2023-07-22T09:03:26;6.03;;;3.90;;
32611;SDS011;19030;49.478;8.986;2023-07-22T09:05:27;9.20;;;4.10;;
32611;SDS011;19030;49.478;8.986;2023-07-22T09:07:28;10.63;;;4.90;;
32611;SDS011;19030;49.478;8.986;2023-07-22T09:09:29;7.82;;;4.40;;
32611;SDS011;19030;49.478;8.986;2023-07-22T09:11:31;6.80;;;4.78;;
32611;SDS011;19030;49.478;8.986;2023-07-22T09:13:31;5.93;;;3.97;;
32611;SDS011;19030;49.478;8.986;2023-07-22T09:15:35;8.55;;;4.80;;
32611;SDS011;19030;49.478;8.986;2023-07-22T09:17:37;7.93;;;4.57;;
32611;SDS011;19030;49.478;8.986;2023-07-22T09:19:40;8.27;;;4.90;;
32611;SDS011;19030;49.478;8.986;2023-07-22T09:21:41;7.47;;;4.68;;
32611;SDS011;19030;49.478;8.986;2023-07-22T09:23:42;7.10;;;4.32;;
32611;SDS011;19030;49.478;8.986;2023-07-22T09:25:42;8.60;;;4.93;;
32611;SDS011;19030;49.478;8.986;2023-07-22T09:27:43;8.52;;;4.68;;
32611;SDS011;19030;49.478;8.986;2023-07-22T09:29:44;9.50;;;4.53;;
32611;SDS011;19030;49.478;8.986;2023-07-22T09:31:48;9.80;;;4.68;;
32611;SDS011;19030;49.478;8.986;2023-07-22T09:33:50;8.10;;;4.43;;
32611;SDS011;19030;49.478;8.986;2023-07-22T09:35:51;6.20;;;3.97;;
32611;SDS011;19030;49.478;8.986;2023-07-22T09:37:52;6.25;;;4.07;;
32611;SDS011;19030;49.478;8.986;2023-07-22T09:39:53;11.10;;;4.72;;
32611;SDS011;19030;49.478;8.986;2023-07-22T09:41:54;6.30;;;3.97;;
32611;SDS011;19030;49.478;8.986;2023-07-22T09:43:54;8.35;;;4.63;;
32611;SDS011;19030;49.478;8.986;2023-07-22T09:45:55;5.93;;;3.70;;
32611;SDS011;19030;49.478;8.986;2023-07-22T09:48:05;11.50;;;7.70;;
32611;SDS011;19030;49.478;8.986;2023-07-22T09:50:06;7.72;;;4.00;;
32611;SDS011;19030;49.478;8.986;2023-07-22T09:52:09;6.57;;;3.67;;
32611;SDS011;19030;49.478;8.986;2023-07-22T09:54:12;6.47;;;3.97;;
32611;SDS011;19030;49.478;8.986;2023-07-22T09:56:13;5.13;;;3.58;;
32611;SDS011;19030;49.478;8.986;2023-07-22T09:58:13;7.93;;;4.05;;
32611;SDS011;19030;49.478;8.986;2023-07-22T10:00:15;7.93;;;3.75;;
32611;SDS011;19030;49.478;8.986;2023-07-22T10:02:19;7.28;;;3.70;;
32611;SDS011;19030;49.478;8.986;2023-07-22T10:04:22;6.72;;;3.80;;
32611;SDS011;19030;49.478;8.986;2023-07-22T10:06:27;6.00;;;3.80;;
32611;SDS011;19030;49.478;8.986;2023-07-22T10:08:29;6.90;;;3.60;;
32611;SDS011;19030;49.478;8.986;2023-07-22T10:10:33;5.72;;;3.70;;
32611;SDS011;19030;49.478;8.986;2023-07-22T10:12:38;7.53;;;3.55;;
32611;SDS011;19030;49.478;8.986;2023-07-22T10:14:40;7.00;;;3.90;;
32611;SDS011;19030;49.478;8.986;2023-07-22T10:16:42;5.78;;;3.83;;
32611;SDS011;19030;49.478;8.986;2023-07-22T10:18:42;8.55;;;3.70;;
32611;SDS011;19030;49.478;8.986;2023-07-22T10:20:45;6.38;;;3.45;;
32611;SDS011;19030;49.478;8.986;2023-07-22T10:22:46;7.45;;;3.83;;
32611;SDS011;19030;49.478;8.986;2023-07-22T10:24:47;8.95;;;4.00;;
32611;SDS011;19030;49.478;8.986;2023-07-22T10:26:49;5.53;;;3.70;;
32611;SDS011;19030;49.478;8.986;2023-07-22T10:28:51;6.18;;;3.67;;
32611;SDS011;19030;49.478;8.986;2023-07-22T10:30:52;5.35;;;3.60;;
32611;SDS011;19030;49.478;8.986;2023-07-22T10:32:53;6.40;;;3.63;;
32611;SDS011;19030;49.478;8.986;2023-07-22T10:34:54;6.05;;;3.47;;
32611;SDS011;19030;49.478;8.986;2023-07-22T10:36:56;7.90;;;4.35;;
32611;SDS011;19030;49.478;8.986;2023-07-22T10:38:58;8.45;;;3.20;;
32611;SDS011;19030;49.478;8.986;2023-07-22T10:40:59;7.32;;;3.72;;
32611;SDS011;19030;49.478;8.986;2023-07-22T10:43:04;5.22;;;3.38;;
32611;SDS011;19030;49.478;8.986;2023-07-22T10:45:18;7.22;;;3.25;;
32611;SDS011;19030;49.478;8.986;2023-07-22T10:47:33;6.88;;;3.47;;
32611;SDS011;19030;49.478;8.986;2023-07-22T10:49:43;6.03;;;3.50;;
32611;SDS011;19030;49.478;8.986;2023-07-22T10:51:49;7.90;;;3.83;;
32611;SDS011;19030;49.478;8.986;2023-07-22T10:53:51;5.90;;;3.50;;
32611;SDS011;19030;49.478;8.986;2023-07-22T10:58:17;8.18;;;3.78;;
32611;SDS011;19030;49.478;8.986;2023-07-22T11:00:20;6.93;;;3.60;;
32611;SDS011;19030;49.478;8.986;2023-07-22T11:02:25;6.28;;;3.38;;
32611;SDS011;19030;49.478;8.986;2023-07-22T11:04:27;5.53;;;3.47;;
32611;SDS011;19030;49.478;8.986;2023-07-22T11:06:31;5.72;;;3.40;;
32611;SDS011;19030;49.478;8.986;2023-07-22T11:08:35;6.75;;;4.07;;
32611;SDS011;19030;49.478;8.986;2023-07-22T11:10:37;9.30;;;4.43;;
32611;SDS011;19030;49.478;8.986;2023-07-22T11:12:51;8.75;;;4.70;;
32611;SDS011;19030;49.478;8.986;2023-07-22T11:15:01;12.40;;;3.92;;
32611;SDS011;19030;49.478;8.986;2023-07-22T11:17:03;7.30;;;4.07;;
32611;SDS011;19030;49.478;8.986;2023-07-22T11:19:07;6.50;;;4.13;;
32611;SDS011;19030;49.478;8.986;2023-07-22T11:21:11;5.97;;;3.90;;
32611;SDS011;19030;49.478;8.986;2023-07-22T11:23:12;6.10;;;3.92;;
32611;SDS011;19030;49.478;8.986;2023-07-22T11:25:16;5.45;;;3.75;;
32611;SDS011;19030;49.478;8.986;2023-07-22T11:27:18;8.48;;;4.95;;
32611;SDS011;19030;49.478;8.986;2023-07-22T11:29:19;6.40;;;3.80;;
32611;SDS011;19030;49.478;8.986;2023-07-22T11:31:20;6.47;;;3.80;;
32611;SDS011;19030;49.478;8.986;2023-07-22T11:33:21;7.95;;;3.80;;
32611;SDS011;19030;49.478;8.986;2023-07-22T11:35:22;7.93;;;4.10;;
32611;SDS011;19030;49.478;8.986;2023-07-22T11:37:22;4.88;;;3.85;;
32611;SDS011;19030;49.478;8.986;2023-07-22T11:39:23;9.30;;;4.03;;
32611;SDS011;19030;49.478;8.986;2023-07-22T11:41:25;5.93;;;4.28;;
32611;SDS011;19030;49.478;8.986;2023-07-22T11:43:26;6.07;;;3.90;;
32611;SDS011;19030;49.478;8.986;2023-07-22T11:45:27;6.75;;;4.20;;
32611;SDS011;19030;49.478;8.986;2023-07-22T11:47:28;5.80;;;4.53;;
32611;SDS011;19030;49.478;8.986;2023-07-22T11:51:41;6.10;;;4.40;;
32611;SDS011;19030;49.478;8.986;2023-07-22T11:53:43;6.93;;;4.40;;
32611;SDS011;19030;49.478;8.986;2023-07-22T11:55:48;7.15;;;4.97;;
32611;SDS011;19030;49.478;8.986;2023-07-22T11:57:51;7.05;;;5.63;;
32611;SDS011;19030;49.478;8.986;2023-07-22T11:59:54;10.27;;;6.40;;
32611;SDS011;19030;49.478;8.986;2023-07-22T12:01:55;8.45;;;6.30;;
32611;SDS011;19030;49.478;8.986;2023-07-22T12:03:56;7.18;;;5.68;;
32611;SDS011;19030;49.478;8.986;2023-07-22T12:06:00;8.35;;;7.45;;
32611;SDS011;19030;49.478;8.986;2023-07-22T12:08:03;7.20;;;6.25;;
32611;SDS011;19030;49.478;8.986;2023-07-22T12:10:04;8.70;;;7.55;;
32611;SDS011;19030;49.478;8.986;2023-07-22T12:12:07;8.50;;;7.57;;
32611;SDS011;19030;49.478;8.986;2023-07-22T12:14:09;8.50;;;7.60;;
32611;SDS011;19030;49.478;8.986;2023-07-22T12:16:11;3.90;;;2.70;;